Time;durP1;ratioP1;P1;durP2;ratioP2;P2;SDS_P1;SDS_P2;PMS_P1;PMS_P2;Temp;Humidity;BMP_temperature;BMP_pressure;BME280_temperature;BME280_humidity;BME280_pressure;Samples;Min_cycle;Max_cycle;Signal;HPM_P1;HPM_P2
2023/11/26 00:00:30;;;;;;;9.07;3.87;;;8.00;99.90;;;;;;5028450;28;20182;-73
2023/11/26 00:02:56;;;;;;;6.73;3.03;;;8.00;99.90;;;;;;5028985;28;20227;-74
2023/11/26 00:05:22;;;;;;;8.03;3.20;;;8.00;99.90;;;;;;5029394;28;20213;-74
2023/11/26 00:08:07;;;;;;;6.18;3.10;;;8.00;99.90;;;;;;5030668;28;20757;-74
2023/11/26 00:10:53;;;;;;;8.15;3.63;;;8.00;99.90;;;;;;5030680;28;20821;-74
2023/11/26 00:13:39;;;;;;;8.27;2.75;;;8.00;99.90;;;;;;5029185;28;20545;-74
2023/11/26 00:16:05;;;;;;;9.77;3.33;;;7.90;99.90;;;;;;5029209;28;20272;-74
2023/11/26 00:18:30;;;;;;;8.60;3.57;;;7.90;99.90;;;;;;5011107;28;20608;-74
2023/11/26 00:20:57;;;;;;;5.87;3.27;;;7.90;99.90;;;;;;5028862;28;20595;-74
2023/11/26 00:23:23;;;;;;;8.68;3.47;;;7.90;99.90;;;;;;5029228;28;20272;-74
2023/11/26 00:25:48;;;;;;;11.30;3.90;;;7.80;99.90;;;;;;5012320;28;20300;-74
2023/11/26 00:28:14;;;;;;;10.63;4.00;;;7.80;99.90;;;;;;5012469;28;20762;-74
2023/11/26 00:30:40;;;;;;;8.63;3.97;;;7.80;99.90;;;;;;5028985;28;20180;-73
2023/11/26 00:33:06;;;;;;;11.57;5.13;;;7.80;99.90;;;;;;5029331;28;20173;-74
2023/11/26 00:35:32;;;;;;;7.10;4.40;;;7.80;99.90;;;;;;5012761;28;20595;-74
2023/11/26 00:37:58;;;;;;;7.87;3.70;;;7.80;99.90;;;;;;5012530;28;20360;-74
2023/11/26 00:40:24;;;;;;;6.20;2.92;;;7.80;99.90;;;;;;5029251;28;20177;-74
2023/11/26 00:42:51;;;;;;;8.20;3.40;;;7.80;99.90;;;;;;5029394;28;20166;-77
2023/11/26 00:45:16;;;;;;;7.63;3.65;;;7.80;99.90;;;;;;5030061;28;20174;-77
2023/11/26 00:47:43;;;;;;;5.80;3.60;;;7.80;99.90;;;;;;5029712;28;20200;-77
2023/11/26 00:50:10;;;;;;;5.33;3.33;;;7.80;99.90;;;;;;5029835;28;20178;-77
2023/11/26 00:52:36;;;;;;;6.60;3.03;;;7.80;99.90;;;;;;5031033;28;20268;-77
2023/11/26 00:55:02;;;;;;;7.07;3.33;;;7.80;99.90;;;;;;5017890;28;20214;-77
2023/11/26 00:57:28;;;;;;;8.40;2.60;;;7.80;99.90;;;;;;5009864;28;20178;-77
2023/11/26 00:59:54;;;;;;;9.17;3.83;;;7.80;99.90;;;;;;5029694;28;20555;-77
2023/11/26 01:02:21;;;;;;;8.27;3.93;;;7.80;99.90;;;;;;5030719;28;20599;-77
2023/11/26 01:04:50;;;;;;;9.15;3.35;;;7.80;99.90;;;;;;5030084;28;20170;-76
2023/11/26 01:07:16;;;;;;;5.93;3.15;;;7.80;99.90;;;;;;5029540;28;20615;-77
2023/11/26 01:09:42;;;;;;;7.80;3.38;;;7.80;99.90;;;;;;5011868;28;20299;-77
2023/11/26 01:12:08;;;;;;;10.90;3.03;;;7.80;99.90;;;;;;5031323;28;20652;-77
2023/11/26 01:14:34;;;;;;;11.67;3.63;;;7.80;99.90;;;;;;5035932;28;20194;-76
2023/11/26 01:16:59;;;;;;;8.10;3.17;;;7.70;99.90;;;;;;5017259;28;20579;-76
2023/11/26 01:19:25;;;;;;;5.43;2.90;;;7.80;99.90;;;;;;5033681;28;20846;-77
2023/11/26 01:21:51;;;;;;;7.40;3.00;;;7.70;99.90;;;;;;5008182;28;20174;-76
2023/11/26 01:24:17;;;;;;;5.40;2.90;;;7.70;99.90;;;;;;5015191;28;20260;-76
2023/11/26 01:26:44;;;;;;;4.43;3.33;;;7.70;99.90;;;;;;5014805;28;20536;-76
2023/11/26 01:29:09;;;;;;;6.35;3.50;;;7.70;99.90;;;;;;5013448;28;20226;-76
2023/11/26 01:31:35;;;;;;;7.27;2.80;;;7.70;99.90;;;;;;5030282;28;20188;-76
2023/11/26 01:34:01;;;;;;;9.00;3.30;;;7.70;99.90;;;;;;5033182;28;20823;-76
2023/11/26 01:36:26;;;;;;;11.17;4.17;;;7.70;99.90;;;;;;5016598;28;20723;-76
2023/11/26 01:38:52;;;;;;;6.50;2.80;;;7.70;99.90;;;;;;5034311;28;20197;-76
2023/11/26 01:41:18;;;;;;;6.03;3.30;;;7.70;99.90;;;;;;5003594;28;20240;-76
2023/11/26 01:43:44;;;;;;;6.20;3.30;;;7.70;99.90;;;;;;5031850;28;20175;-75
2023/11/26 01:46:12;;;;;;;5.20;3.07;;;7.70;99.90;;;;;;5017092;28;20279;-75
2023/11/26 01:48:39;;;;;;;7.07;2.90;;;7.70;99.90;;;;;;5039428;28;21002;-76
2023/11/26 01:51:09;;;;;;;5.13;3.63;;;7.70;99.90;;;;;;5039970;28;20173;-75
2023/11/26 01:53:37;;;;;;;8.43;3.85;;;7.70;99.90;;;;;;5039505;28;20180;-75
2023/11/26 01:56:03;;;;;;;7.68;3.95;;;7.70;99.90;;;;;;5039602;28;20178;-76
2023/11/26 01:58:31;;;;;;;6.05;3.17;;;7.70;99.90;;;;;;5039392;28;20202;-76
2023/11/26 02:00:57;;;;;;;7.40;2.55;;;7.70;99.90;;;;;;5002576;28;20214;-75
2023/11/26 02:03:23;;;;;;;6.55;3.03;;;7.60;99.90;;;;;;5025914;28;20589;-74
2023/11/26 02:05:48;;;;;;;10.67;2.97;;;7.60;99.90;;;;;;5036007;28;20201;-75
2023/11/26 02:08:15;;;;;;;7.37;3.40;;;7.60;99.90;;;;;;5001943;28;20656;-75
2023/11/26 02:10:43;;;;;;;5.95;3.30;;;7.60;99.90;;;;;;5019018;28;20607;-76
2023/11/26 02:13:09;;;;;;;4.43;2.33;;;7.60;99.90;;;;;;5034274;28;20669;-76
2023/11/26 02:15:35;;;;;;;6.45;2.35;;;7.60;99.90;;;;;;5021574;28;20188;-76
2023/11/26 02:18:02;;;;;;;5.78;3.53;;;7.60;99.90;;;;;;5021128;28;20193;-75
2023/11/26 02:20:33;;;;;;;6.05;2.42;;;7.60;99.90;;;;;;5038147;28;20547;-75
2023/11/26 02:22:59;;;;;;;4.93;2.27;;;7.60;99.90;;;;;;5018517;28;20174;-75
2023/11/26 02:25:30;;;;;;;7.07;2.27;;;7.60;99.90;;;;;;5012940;28;20581;-75
2023/11/26 02:27:57;;;;;;;2.85;2.03;;;7.60;99.90;;;;;;5017558;28;20178;-75
2023/11/26 02:30:24;;;;;;;4.22;2.85;;;7.50;99.90;;;;;;5013569;28;20839;-76
2023/11/26 02:32:51;;;;;;;6.25;3.80;;;7.50;99.90;;;;;;5011581;28;20174;-76
2023/11/26 02:35:18;;;;;;;5.35;3.05;;;7.50;99.90;;;;;;4984510;28;20226;-76
2023/11/26 02:37:45;;;;;;;9.95;2.72;;;7.50;99.90;;;;;;5011637;28;20182;-76
2023/11/26 02:40:11;;;;;;;8.70;2.90;;;7.50;99.90;;;;;;5024245;28;20255;-76
2023/11/26 02:42:37;;;;;;;9.77;3.53;;;7.50;99.90;;;;;;5031219;28;20742;-76
2023/11/26 02:45:03;;;;;;;6.30;2.60;;;7.40;99.90;;;;;;5031266;28;21059;-76
2023/11/26 02:47:29;;;;;;;8.55;2.60;;;7.40;99.90;;;;;;5006082;28;20206;-75
2023/11/26 02:49:55;;;;;;;7.07;2.73;;;7.40;99.90;;;;;;5011395;28;20182;-76
2023/11/26 02:52:21;;;;;;;6.00;3.37;;;7.40;99.90;;;;;;4995068;28;20170;-76
2023/11/26 02:54:47;;;;;;;5.35;2.70;;;7.40;99.90;;;;;;4995110;28;20177;-76
2023/11/26 02:57:13;;;;;;;7.37;3.70;;;7.40;99.90;;;;;;4994932;28;20631;-75
2023/11/26 02:59:41;;;;;;;7.40;3.65;;;7.40;99.90;;;;;;4994868;28;20277;-75
2023/11/26 03:02:09;;;;;;;7.95;3.67;;;7.40;99.90;;;;;;4998711;28;20264;-75
2023/11/26 03:04:37;;;;;;;6.78;3.72;;;7.40;99.90;;;;;;5025318;28;20174;-75
2023/11/26 03:07:04;;;;;;;13.35;5.00;;;7.40;99.90;;;;;;5031665;28;20288;-75
2023/11/26 03:12:53;;;;;;;7.60;3.22;;;7.30;99.90;;;;;;5014291;28;20287;-75
2023/11/26 03:15:00;;;;;;;5.78;3.47;;;7.40;99.90;;;;;;5030776;28;20260;-76
2023/11/26 03:17:26;;;;;;;6.03;3.42;;;7.30;99.90;;;;;;5031909;28;20174;-75
2023/11/26 03:19:52;;;;;;;7.53;3.40;;;7.40;99.90;;;;;;4996031;28;20575;-76
2023/11/26 03:22:17;;;;;;;7.43;3.70;;;7.30;99.90;;;;;;5010822;28;20229;-76
2023/11/26 03:24:43;;;;;;;12.30;4.07;;;7.30;99.90;;;;;;5010803;28;20186;-75
2023/11/26 03:27:12;;;;;;;6.55;3.42;;;7.30;99.90;;;;;;5006041;28;20748;-75
2023/11/26 03:29:40;;;;;;;5.07;3.10;;;7.20;99.90;;;;;;5030133;28;20561;-75
2023/11/26 03:32:06;;;;;;;8.80;4.47;;;7.20;99.90;;;;;;5002363;28;20170;-75
2023/11/26 03:34:32;;;;;;;8.60;3.88;;;7.20;99.90;;;;;;5042127;28;20182;-75
2023/11/26 03:36:58;;;;;;;8.80;3.37;;;7.10;99.90;;;;;;5030173;28;20177;-75
2023/11/26 03:39:24;;;;;;;9.10;3.67;;;7.00;99.90;;;;;;5013750;28;20689;-75
2023/11/26 03:41:50;;;;;;;6.20;3.40;;;7.00;99.90;;;;;;5033508;28;20178;-75
2023/11/26 03:44:16;;;;;;;6.20;3.70;;;6.90;99.90;;;;;;5030170;28;20174;-75
2023/11/26 03:46:42;;;;;;;9.83;4.03;;;6.80;99.90;;;;;;5032174;22;20325;-79
2023/11/26 03:49:08;;;;;;;5.50;3.50;;;6.70;99.90;;;;;;5009982;28;20182;-79
2023/11/26 03:51:34;;;;;;;7.30;3.50;;;6.70;99.90;;;;;;4993673;28;20664;-79
2023/11/26 03:53:59;;;;;;;9.10;3.23;;;6.60;99.90;;;;;;5010003;28;20330;-79
2023/11/26 03:56:25;;;;;;;7.80;3.47;;;6.60;99.90;;;;;;5011247;28;20596;-79
2023/11/26 03:58:51;;;;;;;5.70;3.47;;;6.50;99.90;;;;;;5001899;28;20163;-79
2023/11/26 04:01:16;;;;;;;4.77;3.20;;;6.40;99.90;;;;;;5011595;28;20178;-79
2023/11/26 04:03:43;;;;;;;5.80;3.77;;;6.40;99.90;;;;;;5010177;28;20174;-79
2023/11/26 04:06:09;;;;;;;7.97;3.60;;;6.40;99.90;;;;;;5010174;28;20205;-79
2023/11/26 04:08:35;;;;;;;5.20;4.20;;;6.30;99.90;;;;;;5010690;28;20174;-79
2023/11/26 04:11:00;;;;;;;5.90;3.50;;;6.30;99.90;;;;;;5011071;28;20172;-79
2023/11/26 04:13:27;;;;;;;5.20;3.13;;;6.20;99.90;;;;;;4993768;28;21195;-79
2023/11/26 04:15:57;;;;;;;7.18;3.75;;;6.20;99.90;;;;;;5026414;28;20935;-79
2023/11/26 04:18:27;;;;;;;5.10;3.45;;;6.20;99.90;;;;;;5005455;28;20202;-79
2023/11/26 04:20:54;;;;;;;4.68;3.70;;;6.10;99.90;;;;;;5005980;28;20595;-79
2023/11/26 04:23:20;;;;;;;4.80;3.60;;;6.10;99.90;;;;;;4987218;28;20301;-79
2023/11/26 04:25:46;;;;;;;6.65;4.95;;;6.00;99.90;;;;;;5009886;28;20202;-79
2023/11/26 04:28:15;;;;;;;10.32;4.10;;;6.00;99.90;;;;;;5009912;28;20590;-79
2023/11/26 04:30:41;;;;;;;6.63;4.05;;;6.00;99.90;;;;;;5042198;28;20198;-79
2023/11/26 04:33:10;;;;;;;5.65;4.30;;;6.00;99.90;;;;;;5011206;28;20178;-79
2023/11/26 04:35:37;;;;;;;10.63;4.30;;;6.00;99.90;;;;;;5002877;28;20178;-79
2023/11/26 04:38:02;;;;;;;9.05;5.80;;;5.90;99.90;;;;;;5008660;28;20684;-79
2023/11/26 04:40:28;;;;;;;8.48;4.63;;;6.00;99.90;;;;;;5009612;28;20221;-79
2023/11/26 04:42:54;;;;;;;8.00;4.60;;;6.00;99.90;;;;;;5009689;28;20213;-79
2023/11/26 04:45:20;;;;;;;8.70;5.13;;;6.00;99.90;;;;;;5009713;28;20186;-79
2023/11/26 04:47:46;;;;;;;14.03;5.67;;;6.00;99.90;;;;;;5014274;28;20305;-79
2023/11/26 04:50:12;;;;;;;9.65;5.45;;;5.90;99.90;;;;;;5013945;28;20586;-79
2023/11/26 04:52:38;;;;;;;9.02;5.47;;;6.00;99.90;;;;;;5015241;28;20178;-79
2023/11/26 04:55:04;;;;;;;14.37;5.80;;;6.00;99.90;;;;;;4998351;28;20549;-79
2023/11/26 04:57:30;;;;;;;9.65;5.32;;;6.00;99.90;;;;;;5014084;28;20572;-79
2023/11/26 04:59:56;;;;;;;8.77;5.50;;;6.00;99.90;;;;;;5013974;28;20182;-79
2023/11/26 05:02:21;;;;;;;8.40;6.90;;;6.10;99.90;;;;;;5022499;28;20262;-79
2023/11/26 05:04:48;;;;;;;9.13;6.00;;;6.10;99.90;;;;;;5011682;28;20193;-80
2023/11/26 05:07:14;;;;;;;7.78;5.75;;;6.10;99.90;;;;;;5029724;28;20352;-80
2023/11/26 05:09:40;;;;;;;12.05;6.75;;;6.20;99.90;;;;;;4989541;28;20175;-79
2023/11/26 05:12:06;;;;;;;10.10;5.73;;;6.20;99.90;;;;;;5022867;28;20187;-79
2023/11/26 05:14:33;;;;;;;8.25;6.43;;;6.20;99.90;;;;;;4998444;28;20180;-79
2023/11/26 05:16:59;;;;;;;8.25;6.30;;;6.30;99.90;;;;;;5016288;28;20194;-79
2023/11/26 05:19:25;;;;;;;10.77;7.20;;;6.30;99.90;;;;;;4998781;28;20171;-80
2023/11/26 05:21:51;;;;;;;13.37;7.57;;;6.40;99.90;;;;;;5013140;28;21142;-80
2023/11/26 05:24:16;;;;;;;8.63;6.63;;;6.40;99.90;;;;;;5023272;28;20213;-79
2023/11/26 05:26:42;;;;;;;7.90;7.00;;;6.50;99.90;;;;;;5006855;28;20672;-79
2023/11/26 05:29:08;;;;;;;15.17;7.63;;;6.50;99.90;;;;;;5014460;28;20521;-79
2023/11/26 05:31:34;;;;;;;10.35;6.53;;;6.60;99.90;;;;;;5013643;28;20175;-79
2023/11/26 05:34:00;;;;;;;10.63;6.50;;;6.60;99.90;;;;;;5037546;28;20232;-79
2023/11/26 05:36:26;;;;;;;9.63;7.15;;;6.60;99.90;;;;;;5013150;28;20953;-79
2023/11/26 05:38:52;;;;;;;10.17;7.13;;;6.70;99.90;;;;;;5046487;28;20224;-79
2023/11/26 05:41:20;;;;;;;10.87;8.23;;;6.70;99.90;;;;;;5013176;28;20186;-79
2023/11/26 05:43:46;;;;;;;11.02;7.45;;;6.70;99.90;;;;;;5041072;28;20600;-79
2023/11/26 05:46:12;;;;;;;9.40;7.20;;;6.70;99.90;;;;;;5012874;28;20276;-79
2023/11/26 05:48:40;;;;;;;9.95;8.05;;;6.80;99.90;;;;;;5013306;28;20175;-80
2023/11/26 05:51:06;;;;;;;10.77;7.28;;;6.80;99.90;;;;;;5012490;28;20178;-79
2023/11/26 05:53:32;;;;;;;10.80;7.60;;;6.80;99.90;;;;;;5012771;28;20167;-79
2023/11/26 05:55:57;;;;;;;9.23;7.32;;;6.80;99.90;;;;;;5004856;28;20179;-79
2023/11/26 05:58:23;;;;;;;18.40;9.37;;;6.80;99.90;;;;;;5011200;28;20671;-79
2023/11/26 06:00:49;;;;;;;14.33;7.83;;;6.90;99.90;;;;;;5016274;28;20465;-79
2023/11/26 06:03:14;;;;;;;10.40;6.90;;;6.90;99.90;;;;;;5008393;28;20178;-79
2023/11/26 06:05:40;;;;;;;11.27;7.27;;;7.00;99.90;;;;;;5013502;28;20178;-79
2023/11/26 06:08:06;;;;;;;16.80;8.32;;;7.00;99.90;;;;;;5012131;28;20643;-80
2023/11/26 06:10:32;;;;;;;10.50;7.50;;;7.00;99.90;;;;;;5015247;28;20591;-79
2023/11/26 06:12:58;;;;;;;12.80;7.83;;;7.10;99.90;;;;;;5009778;28;20170;-79
2023/11/26 06:15:25;;;;;;;10.80;8.55;;;7.10;99.90;;;;;;5012012;28;20651;-80
2023/11/26 06:17:51;;;;;;;15.15;7.88;;;7.10;99.90;;;;;;5013271;28;20248;-79
2023/11/26 06:20:17;;;;;;;9.45;6.82;;;7.20;99.90;;;;;;5020613;28;20178;-80
2023/11/26 06:22:42;;;;;;;13.80;8.10;;;7.20;99.90;;;;;;5013181;28;20540;-79
2023/11/26 06:25:11;;;;;;;11.13;8.43;;;7.20;99.90;;;;;;5009930;28;20949;-79
2023/11/26 06:27:37;;;;;;;10.57;8.25;;;7.20;99.90;;;;;;5001236;28;20269;-79
2023/11/26 06:30:07;;;;;;;11.73;8.02;;;7.30;99.90;;;;;;5011687;28;20166;-79
2023/11/26 06:32:32;;;;;;;12.90;9.13;;;7.30;99.90;;;;;;4990725;28;20663;-79
2023/11/26 06:34:59;;;;;;;14.57;9.50;;;7.30;99.90;;;;;;5010356;28;20175;-79
2023/11/26 06:37:26;;;;;;;14.65;9.63;;;7.30;99.90;;;;;;5018867;28;20187;-80
2023/11/26 06:39:53;;;;;;;13.10;9.18;;;7.40;99.90;;;;;;5000550;28;20190;-79
2023/11/26 06:42:18;;;;;;;10.63;7.72;;;7.40;99.90;;;;;;5004774;28;20257;-79
2023/11/26 06:44:45;;;;;;;12.10;10.23;;;7.40;99.90;;;;;;5012761;28;20320;-79
2023/11/26 06:47:11;;;;;;;10.98;8.43;;;7.40;99.90;;;;;;4994665;28;20651;-80
2023/11/26 06:49:36;;;;;;;14.50;9.60;;;7.40;99.90;;;;;;5012771;28;20537;-80
2023/11/26 06:52:02;;;;;;;14.30;9.03;;;7.40;99.90;;;;;;5000476;28;20594;-79
2023/11/26 06:54:28;;;;;;;13.27;9.10;;;7.40;99.90;;;;;;5019975;28;20170;-80
2023/11/26 06:56:53;;;;;;;15.20;10.87;;;7.40;99.90;;;;;;5012331;28;20280;-80
2023/11/26 06:59:19;;;;;;;12.20;9.60;;;7.30;99.90;;;;;;5012409;28;20174;-80
2023/11/26 07:01:45;;;;;;;13.13;10.40;;;7.30;99.90;;;;;;5002860;28;20624;-79
2023/11/26 07:04:10;;;;;;;13.97;9.13;;;7.30;99.90;;;;;;5012422;28;20240;-80
2023/11/26 07:06:36;;;;;;;16.43;9.67;;;7.30;99.90;;;;;;5011005;28;20212;-80
2023/11/26 07:09:07;;;;;;;17.30;11.68;;;7.30;99.90;;;;;;5011692;28;20261;-80
2023/11/26 07:11:33;;;;;;;20.58;11.15;;;7.30;99.90;;;;;;5011515;28;20635;-80
2023/11/26 07:13:58;;;;;;;12.63;10.83;;;7.30;99.90;;;;;;5012807;28;20241;-80
2023/11/26 07:16:24;;;;;;;18.63;12.50;;;7.30;99.90;;;;;;5012906;28;20178;-80
2023/11/26 07:18:50;;;;;;;16.07;10.80;;;7.40;99.90;;;;;;5011386;28;20170;-80
2023/11/26 07:21:15;;;;;;;14.20;10.43;;;7.40;99.90;;;;;;5011320;28;20679;-80
2023/11/26 07:23:41;;;;;;;13.90;10.43;;;7.40;99.90;;;;;;5012941;28;20187;-80
2023/11/26 07:26:11;;;;;;;13.13;10.10;;;7.40;99.90;;;;;;5019538;28;20204;-80
2023/11/26 07:28:37;;;;;;;14.13;9.77;;;7.50;99.90;;;;;;5012533;28;20178;-80
2023/11/26 07:31:03;;;;;;;15.23;10.05;;;7.50;99.90;;;;;;5015415;28;20531;-80
2023/11/26 07:33:29;;;;;;;13.45;10.45;;;7.60;99.90;;;;;;4995236;28;20604;-80
2023/11/26 07:35:57;;;;;;;16.25;11.35;;;7.60;99.90;;;;;;5011041;28;20236;-80
2023/11/26 07:38:22;;;;;;;14.50;11.05;;;7.70;99.90;;;;;;5012342;28;20226;-79
2023/11/26 07:40:49;;;;;;;15.93;10.20;;;7.70;99.90;;;;;;5010887;28;20198;-80
2023/11/26 07:43:15;;;;;;;14.55;10.45;;;7.80;99.90;;;;;;4996182;28;20186;-80
2023/11/26 07:45:41;;;;;;;12.90;10.00;;;7.80;99.90;;;;;;5011413;28;20621;-79
2023/11/26 07:48:08;;;;;;;15.85;10.88;;;7.80;99.90;;;;;;4995528;28;20225;-80
2023/11/26 07:50:35;;;;;;;13.93;10.10;;;7.90;99.90;;;;;;5013904;28;20233;-79
2023/11/26 07:53:00;;;;;;;14.43;10.00;;;7.90;99.90;;;;;;5013070;28;20601;-80
2023/11/26 07:55:26;;;;;;;11.43;10.23;;;7.90;99.90;;;;;;5012613;28;20663;-80
2023/11/26 07:57:53;;;;;;;13.13;10.27;;;7.90;99.90;;;;;;5012785;28;20194;-79
2023/11/26 08:00:22;;;;;;;13.82;10.18;;;8.00;99.90;;;;;;5029032;28;20198;-79
2023/11/26 08:02:47;;;;;;;13.15;10.25;;;8.00;99.90;;;;;;5007763;28;20185;-79
2023/11/26 08:05:18;;;;;;;15.93;10.60;;;8.00;99.90;;;;;;5017958;28;20190;-80
2023/11/26 08:07:45;;;;;;;19.60;12.10;;;8.00;99.90;;;;;;5018804;28;20229;-79
2023/11/26 08:10:18;;;;;;;12.80;10.07;;;8.10;99.90;;;;;;5012532;28;20178;-80
2023/11/26 08:12:47;;;;;;;16.83;10.32;;;8.10;99.90;;;;;;5013739;28;20253;-79
2023/11/26 08:15:19;;;;;;;18.05;10.88;;;8.10;99.90;;;;;;5012783;28;20210;-79
2023/11/26 08:17:49;;;;;;;18.58;11.48;;;8.20;99.90;;;;;;5011671;28;20217;-80
2023/11/26 08:20:15;;;;;;;15.35;9.93;;;8.30;99.90;;;;;;4994959;28;20273;-79
2023/11/26 08:22:45;;;;;;;16.67;9.47;;;8.30;99.90;;;;;;5009958;28;20273;-80
2023/11/26 08:25:13;;;;;;;15.57;9.88;;;8.40;99.90;;;;;;5019967;28;20584;-79
2023/11/26 08:27:39;;;;;;;15.63;10.43;;;8.40;99.90;;;;;;5021465;28;20218;-79
2023/11/26 08:30:12;;;;;;;17.10;10.63;;;8.50;99.90;;;;;;5026990;28;20225;-79
2023/11/26 08:32:44;;;;;;;13.88;11.10;;;8.50;99.90;;;;;;5017801;28;20178;-79
2023/11/26 08:35:13;;;;;;;13.40;11.13;;;8.60;99.90;;;;;;5007040;28;20664;-79
2023/11/26 08:37:43;;;;;;;12.10;9.73;;;8.70;99.90;;;;;;5023591;28;20245;-79
2023/11/26 08:40:13;;;;;;;15.52;10.35;;;8.70;99.90;;;;;;5019891;28;20182;-79
2023/11/26 08:42:41;;;;;;;12.20;9.98;;;8.80;99.90;;;;;;5010874;28;20216;-80
2023/11/26 08:45:09;;;;;;;15.32;10.75;;;8.90;99.90;;;;;;5003229;28;20178;-79
2023/11/26 08:47:36;;;;;;;16.67;10.60;;;8.90;99.90;;;;;;5002947;28;20206;-80
2023/11/26 08:50:03;;;;;;;21.33;11.77;;;9.00;99.90;;;;;;5004193;28;20197;-79
2023/11/26 08:52:33;;;;;;;14.55;10.90;;;9.10;99.90;;;;;;4998879;28;20547;-80
2023/11/26 08:54:59;;;;;;;14.30;10.75;;;9.20;99.90;;;;;;5012597;28;20174;-79
2023/11/26 08:57:25;;;;;;;14.18;11.25;;;9.30;99.90;;;;;;4995832;28;20202;-79
2023/11/26 08:59:50;;;;;;;17.43;11.97;;;9.30;99.90;;;;;;4985393;28;20177;-79
2023/11/26 09:02:16;;;;;;;16.70;12.10;;;9.40;99.90;;;;;;5017886;28;20194;-79
2023/11/26 09:04:42;;;;;;;21.43;12.40;;;9.50;99.90;;;;;;5011229;28;20179;-79
2023/11/26 09:07:07;;;;;;;12.73;10.37;;;9.50;99.90;;;;;;5016161;28;20574;-79
2023/11/26 09:09:33;;;;;;;14.77;11.60;;;9.60;99.90;;;;;;5014419;28;20181;-80
2023/11/26 09:11:59;;;;;;;16.03;12.67;;;9.70;99.90;;;;;;5005160;28;20652;-79
2023/11/26 09:14:25;;;;;;;18.17;12.97;;;9.70;99.90;;;;;;5006350;28;20590;-79
2023/11/26 09:16:52;;;;;;;15.20;11.33;;;9.80;99.90;;;;;;5013335;28;20617;-79
2023/11/26 09:19:18;;;;;;;19.80;11.15;;;9.80;99.90;;;;;;5010797;28;20281;-79
2023/11/26 09:21:48;;;;;;;12.00;9.93;;;9.90;99.90;;;;;;5011263;28;20202;-79
2023/11/26 09:24:15;;;;;;;12.70;10.80;;;9.90;99.90;;;;;;5017281;28;20186;-79
2023/11/26 09:26:40;;;;;;;15.30;11.63;;;10.00;99.90;;;;;;5003550;28;20206;-79
2023/11/26 09:29:06;;;;;;;17.90;10.77;;;10.00;99.90;;;;;;5010673;28;20174;-79
2023/11/26 09:31:32;;;;;;;15.70;11.57;;;10.10;99.90;;;;;;5010633;28;20183;-79
2023/11/26 09:33:59;;;;;;;15.95;11.70;;;10.10;99.90;;;;;;5012791;28;20198;-79
2023/11/26 09:36:25;;;;;;;18.48;13.02;;;10.20;99.90;;;;;;5043939;28;20175;-79
2023/11/26 09:38:51;;;;;;;14.00;10.45;;;10.30;99.90;;;;;;5007422;28;20162;-79
2023/11/26 09:41:19;;;;;;;15.55;11.13;;;10.30;99.90;;;;;;4995545;28;20552;-81
2023/11/26 09:43:46;;;;;;;14.48;11.57;;;10.40;99.90;;;;;;5007267;28;20269;-79
2023/11/26 09:46:11;;;;;;;15.05;11.15;;;10.50;99.90;;;;;;4991054;28;20203;-79
2023/11/26 09:48:37;;;;;;;13.40;10.00;;;10.50;99.90;;;;;;5009249;28;20544;-79
2023/11/26 09:51:05;;;;;;;15.07;10.00;;;10.60;99.90;;;;;;5007081;28;20620;-79
2023/11/26 09:53:31;;;;;;;14.25;10.38;;;10.70;99.90;;;;;;5014476;28;21192;-80
2023/11/26 09:55:58;;;;;;;12.07;9.50;;;10.70;99.90;;;;;;5016968;28;20166;-80
2023/11/26 09:58:23;;;;;;;15.40;11.55;;;10.80;99.90;;;;;;5009427;28;20199;-80
2023/11/26 10:00:49;;;;;;;14.10;11.43;;;10.80;99.90;;;;;;5021071;28;20171;-80
2023/11/26 10:03:15;;;;;;;12.93;9.73;;;10.80;99.90;;;;;;5012406;28;20654;-80
2023/11/26 10:05:41;;;;;;;14.70;10.73;;;10.80;99.90;;;;;;5007511;28;20517;-79
2023/11/26 10:08:26;;;;;;;10.82;8.48;;;10.80;99.90;;;;;;5005866;28;20194;-79
2023/11/26 10:10:52;;;;;;;12.80;10.40;;;10.80;99.90;;;;;;5018270;28;20179;-79
2023/11/26 10:13:18;;;;;;;20.07;10.60;;;10.80;99.90;;;;;;5013566;28;20171;-80
2023/11/26 10:15:43;;;;;;;13.70;10.13;;;10.80;99.90;;;;;;5009960;28;20696;-80
2023/11/26 10:18:09;;;;;;;15.00;11.03;;;10.70;99.90;;;;;;5005920;28;20195;-79
2023/11/26 10:20:42;;;;;;;12.20;9.63;;;10.80;99.90;;;;;;4997256;28;20654;-79
2023/11/26 10:23:10;;;;;;;13.20;9.50;;;10.80;99.90;;;;;;5013708;28;20205;-78
2023/11/26 10:25:44;;;;;;;12.75;10.45;;;10.70;99.90;;;;;;5012384;28;20175;-78
2023/11/26 10:28:17;;;;;;;13.75;9.90;;;10.70;99.90;;;;;;5010156;28;20201;-78
2023/11/26 10:30:43;;;;;;;13.73;9.73;;;10.70;99.90;;;;;;4996215;28;20167;-78
2023/11/26 10:33:11;;;;;;;15.90;9.85;;;10.70;99.90;;;;;;5010493;28;20229;-79
2023/11/26 10:35:54;;;;;;;11.65;9.75;;;10.70;99.90;;;;;;5028929;28;20171;-78
2023/11/26 10:38:24;;;;;;;13.43;9.07;;;10.70;99.90;;;;;;5010379;28;20257;-79
2023/11/26 10:40:50;;;;;;;11.07;9.35;;;10.80;99.90;;;;;;5013245;28;20185;-79
2023/11/26 10:43:20;;;;;;;11.43;9.45;;;10.90;99.90;;;;;;5013148;28;20188;-79
2023/11/26 10:45:47;;;;;;;15.50;8.50;;;10.90;99.90;;;;;;5011280;28;20583;-79
2023/11/26 10:48:14;;;;;;;12.38;8.30;;;11.00;99.90;;;;;;5011209;28;20695;-78
2023/11/26 10:50:44;;;;;;;8.60;7.57;;;11.10;99.90;;;;;;4995537;28;20248;-79
2023/11/26 10:53:21;;;;;;;10.75;8.55;;;11.10;99.90;;;;;;5014716;28;20177;-78
2023/11/26 10:55:51;;;;;;;9.90;7.43;;;11.20;99.90;;;;;;5008500;28;20170;-79
2023/11/26 10:58:18;;;;;;;11.68;8.55;;;11.20;99.90;;;;;;4999973;28;20293;-80
2023/11/26 11:00:50;;;;;;;11.65;8.00;;;11.30;99.90;;;;;;5004246;28;20182;-79
2023/11/26 11:03:17;;;;;;;9.48;7.45;;;11.30;99.90;;;;;;5036225;28;20178;-79
2023/11/26 11:05:46;;;;;;;8.23;7.45;;;11.30;99.90;;;;;;5011065;28;20170;-80
2023/11/26 11:08:12;;;;;;;10.00;7.20;;;11.30;99.90;;;;;;4991584;28;20203;-78
2023/11/26 11:11:08;;;;;;;10.82;7.47;;;11.30;99.90;;;;;;5005476;28;20186;-79
2023/11/26 11:13:35;;;;;;;11.85;7.55;;;11.30;99.90;;;;;;4994565;28;20183;-78
2023/11/26 11:16:01;;;;;;;6.97;5.93;;;11.30;99.90;;;;;;5009288;28;20225;-78
2023/11/26 11:18:31;;;;;;;11.80;7.43;;;11.30;99.90;;;;;;4995545;28;20210;-79
2023/11/26 11:21:05;;;;;;;8.77;5.95;;;11.30;99.90;;;;;;5013445;28;20175;-79
2023/11/26 11:23:37;;;;;;;11.32;6.15;;;11.20;99.90;;;;;;5012268;28;20276;-79
2023/11/26 11:26:03;;;;;;;9.05;7.07;;;11.20;99.90;;;;;;5013160;28;20313;-79
2023/11/26 11:28:42;;;;;;;8.70;6.70;;;11.20;99.90;;;;;;5015817;28;20846;-79
2023/11/26 11:31:10;;;;;;;9.23;6.75;;;11.10;99.90;;;;;;5011918;28;20209;-79
2023/11/26 11:33:36;;;;;;;7.18;6.47;;;11.10;99.90;;;;;;5014005;28;20209;-79
2023/11/26 11:36:03;;;;;;;8.38;6.35;;;11.00;99.90;;;;;;5019313;28;20227;-79
2023/11/26 11:38:31;;;;;;;7.97;5.60;;;11.00;99.90;;;;;;5021425;28;20261;-81
2023/11/26 11:41:13;;;;;;;6.97;5.50;;;11.00;99.90;;;;;;5013905;28;20183;-81
2023/11/26 11:43:42;;;;;;;7.20;6.50;;;11.00;99.90;;;;;;5000952;28;20186;-80
2023/11/26 11:46:26;;;;;;;9.82;6.70;;;11.00;99.90;;;;;;5010907;28;20630;-80
2023/11/26 11:48:55;;;;;;;8.50;6.28;;;11.00;99.90;;;;;;5016655;28;20178;-79
2023/11/26 11:51:35;;;;;;;10.25;6.70;;;11.00;99.90;;;;;;5024856;28;20182;-80
2023/11/26 11:54:09;;;;;;;7.20;5.90;;;10.90;99.90;;;;;;5042476;28;20201;-80
2023/11/26 11:56:42;;;;;;;6.53;5.90;;;10.90;99.90;;;;;;5027610;28;20257;-81
2023/11/26 11:59:09;;;;;;;7.35;6.03;;;10.90;99.90;;;;;;5036769;28;20207;-85
2023/11/26 12:01:36;;;;;;;7.47;6.72;;;10.80;99.90;;;;;;5040612;28;20186;-81
2023/11/26 12:04:03;;;;;;;10.13;6.53;;;10.80;99.90;;;;;;5023287;28;20261;-81
2023/11/26 12:06:33;;;;;;;9.55;6.82;;;10.70;99.90;;;;;;5023774;28;20208;-77
2023/11/26 12:09:10;;;;;;;8.77;7.88;;;10.60;99.90;;;;;;5031460;28;20177;-79
2023/11/26 12:11:48;;;;;;;8.70;6.95;;;10.60;99.90;;;;;;5057223;22;20293;-77
2023/11/26 12:14:26;;;;;;;8.30;6.65;;;10.60;99.90;;;;;;5046799;28;20259;-78
2023/11/26 12:16:53;;;;;;;10.35;5.93;;;10.60;99.90;;;;;;5021849;28;20189;-78
2023/11/26 12:19:20;;;;;;;10.35;6.35;;;10.60;99.90;;;;;;5029379;28;20534;-78
2023/11/26 12:21:47;;;;;;;9.57;7.05;;;10.60;99.90;;;;;;5028228;28;20201;-78
2023/11/26 12:24:23;;;;;;;9.23;7.22;;;10.60;99.90;;;;;;5030483;28;20209;-77
2023/11/26 12:26:49;;;;;;;7.53;6.10;;;10.50;99.90;;;;;;5045578;28;20235;-76
2023/11/26 12:29:34;;;;;;;8.30;7.43;;;10.50;99.90;;;;;;5013537;28;20175;-75
2023/11/26 12:32:07;;;;;;;7.68;6.25;;;10.50;99.90;;;;;;5045219;28;20678;-75
2023/11/26 12:34:38;;;;;;;7.00;5.80;;;10.50;99.90;;;;;;5037431;28;20181;-75
2023/11/26 12:37:11;;;;;;;8.65;5.40;;;10.50;99.90;;;;;;5019897;28;20188;-75
2023/11/26 12:39:38;;;;;;;7.05;5.47;;;10.60;99.90;;;;;;5042302;28;20213;-75
2023/11/26 12:42:07;;;;;;;6.47;5.30;;;10.60;99.90;;;;;;5024241;28;20198;-74
2023/11/26 12:44:36;;;;;;;6.25;4.78;;;10.60;99.90;;;;;;5012615;28;20320;-75
2023/11/26 12:47:09;;;;;;;7.80;6.53;;;10.60;99.90;;;;;;5028766;28;20214;-75
2023/11/26 12:49:36;;;;;;;8.98;6.00;;;10.70;99.90;;;;;;5045256;28;20174;-75
2023/11/26 12:52:04;;;;;;;9.18;5.40;;;10.70;99.90;;;;;;5038569;28;20197;-75